createdAt,value
2018-07-03T00:03:48.786Z,8.79
2018-07-03T00:09:43.757Z,12.59
2018-07-03T00:15:38.731Z,8.93
2018-07-03T00:21:33.732Z,12.72
2018-07-03T00:27:28.765Z,9.07
2018-07-03T00:33:23.745Z,11.56
2018-07-03T00:39:18.757Z,8.51
2018-07-03T00:45:13.765Z,12.38
2018-07-03T00:51:08.757Z,12.47
2018-07-03T00:57:03.779Z,11
2018-07-03T01:02:58.810Z,13.88
2018-07-03T01:08:53.758Z,15
2018-07-03T01:14:48.777Z,10.74
2018-07-03T01:20:43.796Z,11.11
2018-07-03T01:26:38.790Z,14.61
2018-07-03T01:32:33.783Z,11.19
2018-07-03T01:38:28.804Z,9.4
2018-07-03T01:44:23.798Z,10.91
2018-07-03T01:50:18.803Z,12.94
2018-07-03T01:56:13.836Z,11.05
2018-07-03T02:02:08.828Z,12.92
2018-07-03T02:08:03.834Z,8.6
2018-07-03T02:13:58.827Z,11.8
2018-07-03T02:19:53.867Z,10.74
2018-07-03T02:25:48.846Z,14.37
2018-07-03T02:31:43.862Z,12.66
2018-07-03T02:37:38.841Z,12.14
2018-07-03T02:43:33.857Z,9.36
2018-07-03T02:49:28.860Z,9.66
2018-07-03T02:55:23.863Z,15.45
2018-07-03T03:01:18.857Z,10.43
2018-07-03T03:07:13.851Z,10.09
2018-07-03T03:13:08.884Z,10.33
2018-07-03T03:19:03.852Z,15.38
2018-07-03T03:24:58.872Z,12.1
2018-07-03T03:30:53.876Z,14.02
2018-07-03T03:36:48.895Z,12.18
2018-07-03T03:42:43.907Z,10.11
2018-07-03T03:48:38.875Z,11.71
2018-07-03T03:54:33.898Z,10.62
2018-07-03T04:00:28.931Z,12.62
2018-07-03T04:06:24.049Z,15.27
2018-07-03T04:12:18.922Z,9.92
2018-07-03T04:18:13.866Z,13.54
2018-07-03T04:24:08.929Z,11.79
2018-07-03T04:30:03.862Z,11.97
2018-07-03T04:35:58.903Z,13.43
2018-07-03T04:41:53.961Z,10.59
2018-07-03T04:47:48.921Z,13.75
2018-07-03T04:53:43.901Z,19.53
2018-07-03T04:59:38.939Z,16.62
2018-07-03T05:05:33.997Z,16.88
2018-07-03T05:11:28.919Z,16.75
2018-07-03T05:17:23.964Z,17.6
2018-07-03T05:23:18.929Z,15
2018-07-03T05:29:13.991Z,13.02
2018-07-03T05:35:08.952Z,13.62
2018-07-03T05:41:03.947Z,15.09
2018-07-03T05:46:58.938Z,19.18
2018-07-03T05:52:53.977Z,14.83
2018-07-03T05:58:48.997Z,20.66
2018-07-03T06:04:43.977Z,20.81
2018-07-03T06:10:38.961Z,16.86
2018-07-03T06:16:34.007Z,14.17
2018-07-03T06:22:29.010Z,19.5
2018-07-03T06:28:24.002Z,15.1
2018-07-03T06:34:18.981Z,16.97
2018-07-03T06:40:13.982Z,14.77
2018-07-03T06:46:08.951Z,18.62
2018-07-03T06:52:03.954Z,16.65
2018-07-03T06:57:59.022Z,23.71
2018-07-03T07:03:53.992Z,22.03
2018-07-03T07:09:48.962Z,17.76
2018-07-03T07:15:43.973Z,17.92
2018-07-03T07:21:39.007Z,20.2
2018-07-03T07:27:34.040Z,10.64
2018-07-03T07:33:29.019Z,14.96
2018-07-03T07:39:24.030Z,13.18
2018-07-03T07:45:18.992Z,12.66
2018-07-03T07:51:14.060Z,10.68
2018-07-03T07:57:09.010Z,11.04
2018-07-03T08:03:04.020Z,14.85
2018-07-03T08:08:59.018Z,13.5
2018-07-03T08:14:54.029Z,9.54
2018-07-03T08:20:49.016Z,10.16
2018-07-03T08:26:44.051Z,7.77
2018-07-03T08:32:39.063Z,9.06
2018-07-03T08:38:34.098Z,9.78
2018-07-03T08:44:29.044Z,11.17
2018-07-03T08:50:24.024Z,9.15
2018-07-03T08:56:19.044Z,12.51
2018-07-03T09:02:14.075Z,14.61
2018-07-03T09:08:09.054Z,14.3
2018-07-03T09:14:04.103Z,12.29
2018-07-03T09:19:59.072Z,18.22
2018-07-03T09:25:54.115Z,14.68
2018-07-03T09:31:49.053Z,21.28
2018-07-03T09:37:44.057Z,12.37
2018-07-03T09:43:39.096Z,13.27
2018-07-03T09:49:34.107Z,13.14
2018-07-03T09:55:29.100Z,8.23
2018-07-03T10:01:24.110Z,11.05
2018-07-03T10:07:19.105Z,9.11
2018-07-03T10:13:14.106Z,14.33
2018-07-03T10:19:09.140Z,14.27
2018-07-03T10:25:04.100Z,8.43
2018-07-03T10:30:59.144Z,11.5
2018-07-03T10:36:54.138Z,8.99
2018-07-03T10:42:49.133Z,10.82
2018-07-03T10:48:44.208Z,12.02
2018-07-03T10:54:39.151Z,9.13
2018-07-03T11:00:34.101Z,16.16
2018-07-03T11:06:29.138Z,9.02
2018-07-03T11:12:24.133Z,12.97
2018-07-03T11:18:19.157Z,13.53
2018-07-03T11:24:14.183Z,7.63
2018-07-03T11:30:09.225Z,8.4
2018-07-03T11:36:04.127Z,9.53
2018-07-03T11:41:59.160Z,6.59
2018-07-03T11:47:54.158Z,11.83
2018-07-03T11:53:49.136Z,8.37
2018-07-03T11:59:44.213Z,8.83
2018-07-03T12:05:39.201Z,11.05
2018-07-03T12:11:34.174Z,12.35
2018-07-03T12:17:29.289Z,9.22
2018-07-03T12:23:24.180Z,8.85
2018-07-03T12:29:19.169Z,11.7
2018-07-03T12:35:14.193Z,6.03
2018-07-03T12:41:09.192Z,9.1
2018-07-03T12:47:04.167Z,7.98
2018-07-03T12:52:59.238Z,8.89
2018-07-03T12:58:54.214Z,10.06
2018-07-03T13:04:49.239Z,7.87
2018-07-03T13:10:44.240Z,7.84
2018-07-03T13:16:39.184Z,6.44
2018-07-03T13:22:34.215Z,10.69
2018-07-03T13:28:29.231Z,7.43
2018-07-03T13:34:24.199Z,8.6
2018-07-03T13:40:19.236Z,10.03
2018-07-03T13:46:14.224Z,7.66
2018-07-03T13:52:09.251Z,6.09
2018-07-03T13:58:04.258Z,5.31
2018-07-03T14:03:59.291Z,7.33
2018-07-03T14:09:54.284Z,6.03
2018-07-03T14:15:49.315Z,4.26
2018-07-03T14:21:44.289Z,6.01
2018-07-03T14:27:39.258Z,7.67
2018-07-03T14:33:34.249Z,6.03
2018-07-03T14:39:29.276Z,8.95
2018-07-03T14:45:24.217Z,7.68
2018-07-03T14:51:19.292Z,6.21
2018-07-03T14:57:14.259Z,6.36
2018-07-03T15:03:09.302Z,9.9
2018-07-03T15:09:04.311Z,6.98
2018-07-03T15:14:59.364Z,7.22
2018-07-03T15:20:54.285Z,8.84
2018-07-03T15:26:49.361Z,9.3
2018-07-03T15:32:44.284Z,11.4
2018-07-03T15:38:39.415Z,9.31
2018-07-03T15:44:34.359Z,7.19
2018-07-03T15:50:29.287Z,8.27
2018-07-03T15:56:24.299Z,12.07
2018-07-03T16:02:19.376Z,11.53
2018-07-03T16:08:14.326Z,11.86
2018-07-03T16:14:09.343Z,8.9
2018-07-03T16:20:04.350Z,13.5
2018-07-03T16:25:59.363Z,13.89
2018-07-03T16:31:54.372Z,10.86
2018-07-03T16:37:49.309Z,10.58
2018-07-03T16:43:44.314Z,11.33
2018-07-03T16:49:39.369Z,13.96
2018-07-03T16:55:34.395Z,12.11
2018-07-03T17:01:29.384Z,13.53
2018-07-03T17:07:24.344Z,14.77
2018-07-03T17:13:19.345Z,14.12
2018-07-03T17:19:14.361Z,16.62
2018-07-03T17:25:09.375Z,12.04
2018-07-03T17:31:04.354Z,17.93
2018-07-03T17:36:59.395Z,14.76
2018-07-03T17:42:54.335Z,16.97
2018-07-03T17:48:49.400Z,17.37
2018-07-03T17:54:44.345Z,11.06
2018-07-03T18:00:39.354Z,17.64
2018-07-03T18:06:34.381Z,12.92
2018-07-03T18:12:29.368Z,13.46
2018-07-03T18:18:24.399Z,14.54
2018-07-03T18:24:19.368Z,19.9
2018-07-03T18:30:14.427Z,19
2018-07-03T18:36:09.371Z,13.62
2018-07-03T18:42:04.423Z,15.37
2018-07-03T18:47:59.458Z,19.78
2018-07-03T18:53:54.443Z,13.99
2018-07-03T18:59:49.427Z,19.08
2018-07-03T19:05:44.420Z,24.71
2018-07-03T19:11:39.421Z,27.16
2018-07-03T19:17:34.413Z,18.31
2018-07-03T19:23:29.442Z,13.41
2018-07-03T19:29:24.480Z,18.08
2018-07-03T19:35:19.417Z,22.48
2018-07-03T19:41:14.523Z,17.1
2018-07-03T19:47:09.459Z,24.37
2018-07-03T19:53:04.429Z,18.45
2018-07-03T19:58:59.466Z,24.69
2018-07-03T20:04:54.488Z,16.95
2018-07-03T20:10:49.469Z,17.34
2018-07-03T20:16:44.520Z,20.6
2018-07-03T20:22:39.449Z,24
2018-07-03T20:28:34.499Z,23.5
2018-07-03T20:34:29.498Z,27.53
2018-07-03T20:40:24.506Z,34.33
2018-07-03T20:46:19.491Z,27.4
2018-07-03T20:52:14.512Z,25.54
2018-07-03T20:58:09.519Z,28.29
2018-07-03T21:04:04.561Z,24.42
2018-07-03T21:09:59.541Z,33.67
2018-07-03T21:15:54.472Z,32.53
2018-07-03T21:21:49.533Z,33.04
2018-07-03T21:27:44.565Z,27.65
2018-07-03T21:33:39.535Z,33.41
2018-07-03T21:39:34.569Z,27.14
2018-07-03T21:45:29.544Z,22.57
2018-07-03T21:51:24.505Z,31.19
2018-07-03T21:57:19.519Z,26.26
2018-07-03T22:03:14.550Z,29.04
2018-07-03T22:09:09.521Z,24.7
2018-07-03T22:15:04.512Z,29.55
2018-07-03T22:20:59.551Z,26.97
2018-07-03T22:26:54.572Z,32.19
2018-07-03T22:32:49.583Z,33.61
2018-07-03T22:38:44.651Z,46.34
2018-07-03T22:44:39.565Z,31.88
2018-07-03T22:50:34.561Z,30.27
2018-07-03T22:56:29.583Z,28.41
2018-07-03T23:02:24.572Z,35.24
2018-07-03T23:08:19.590Z,29.22
2018-07-03T23:14:14.712Z,25.97
2018-07-03T23:20:09.562Z,29.36
2018-07-03T23:26:04.555Z,27.21
2018-07-03T23:31:59.588Z,35.6
2018-07-03T23:37:54.608Z,31.44
2018-07-03T23:43:49.608Z,28.87
2018-07-03T23:49:44.615Z,32.66
2018-07-03T23:55:39.596Z,27.22
